Gano, Texas
Current Conditions -  °F | °C
As of 5:55 PM on Monday 20 Oct 2014 (Local Time) from KGRK Reporting Station
Broken Clouds Broken Clouds  
Wind Chill: 79°   Ceiling: 20000
Heat Index: 79°   Visibility: 7mi
Dew Point: 55°   Wind: 7mph
Humidity: 44%   Direction: 100°E
Pressure: 30"   Gusts: NA
Location:  30.5951°N, 97.1399°W
Report Text: KGRK 202255Z 10006KT 7SM FEW050 BKN200 26/13 A3000 RMK SLP159
Loading
Personal Weather Stations






























Interactive Weather Map
Tropical Storm Tracking
New forecast layout! Learn more

10-Day Weather Forecast

Advertisements
Track Severe Weather on mobile